sensor_id;sensor_type;location;lat;lon;timestamp;temperature;humidity
8824;DHT22;4448;50.904;4.694;2023-11-19T00:02:23;12.60;99.90
8824;DHT22;4448;50.904;4.694;2023-11-19T00:04:49;12.60;99.90
8824;DHT22;4448;50.904;4.694;2023-11-19T00:07:16;12.60;99.90
8824;DHT22;4448;50.904;4.694;2023-11-19T00:09:41;12.60;99.90
8824;DHT22;4448;50.904;4.694;2023-11-19T00:12:09;12.70;99.90
8824;DHT22;4448;50.904;4.694;2023-11-19T00:14:37;12.70;99.90
8824;DHT22;4448;50.904;4.694;2023-11-19T00:17:03;12.70;99.90
8824;DHT22;4448;50.904;4.694;2023-11-19T00:19:29;12.70;99.90
8824;DHT22;4448;50.904;4.694;2023-11-19T00:21:55;12.70;99.90
8824;DHT22;4448;50.904;4.694;2023-11-19T00:24:20;12.70;99.90
8824;DHT22;4448;50.904;4.694;2023-11-19T00:26:46;12.70;99.90
8824;DHT22;4448;50.904;4.694;2023-11-19T00:29:12;12.70;99.90
8824;DHT22;4448;50.904;4.694;2023-11-19T00:31:39;12.70;99.90
8824;DHT22;4448;50.904;4.694;2023-11-19T00:34:05;12.70;99.90
8824;DHT22;4448;50.904;4.694;2023-11-19T00:36:31;12.70;99.90
8824;DHT22;4448;50.904;4.694;2023-11-19T00:38:57;12.70;99.90
8824;DHT22;4448;50.904;4.694;2023-11-19T00:41:23;12.70;99.90
8824;DHT22;4448;50.904;4.694;2023-11-19T00:43:49;12.70;99.90
8824;DHT22;4448;50.904;4.694;2023-11-19T00:46:14;12.70;99.90
8824;DHT22;4448;50.904;4.694;2023-11-19T00:48:40;12.70;99.90
8824;DHT22;4448;50.904;4.694;2023-11-19T00:51:06;12.70;99.90
8824;DHT22;4448;50.904;4.694;2023-11-19T00:53:32;12.70;99.90
8824;DHT22;4448;50.904;4.694;2023-11-19T00:55:59;12.70;99.90
8824;DHT22;4448;50.904;4.694;2023-11-19T00:58:25;12.70;99.90
8824;DHT22;4448;50.904;4.694;2023-11-19T01:00:51;12.70;99.90
8824;DHT22;4448;50.904;4.694;2023-11-19T01:03:17;12.70;99.90
8824;DHT22;4448;50.904;4.694;2023-11-19T01:05:43;12.70;99.90
8824;DHT22;4448;50.904;4.694;2023-11-19T01:08:10;12.70;99.90
8824;DHT22;4448;50.904;4.694;2023-11-19T01:10:38;12.70;99.90
8824;DHT22;4448;50.904;4.694;2023-11-19T01:13:04;12.70;99.90
8824;DHT22;4448;50.904;4.694;2023-11-19T01:15:34;12.70;99.90
8824;DHT22;4448;50.904;4.694;2023-11-19T01:18:00;12.70;99.90
8824;DHT22;4448;50.904;4.694;2023-11-19T01:20:30;12.70;99.90
8824;DHT22;4448;50.904;4.694;2023-11-19T01:22:56;12.70;99.90
8824;DHT22;4448;50.904;4.694;2023-11-19T01:25:22;12.70;99.90
8824;DHT22;4448;50.904;4.694;2023-11-19T01:27:47;12.70;99.90
8824;DHT22;4448;50.904;4.694;2023-11-19T01:30:13;12.70;99.90
8824;DHT22;4448;50.904;4.694;2023-11-19T01:32:40;12.70;99.90
8824;DHT22;4448;50.904;4.694;2023-11-19T01:35:06;12.70;99.90
8824;DHT22;4448;50.904;4.694;2023-11-19T01:37:31;12.70;99.90
8824;DHT22;4448;50.904;4.694;2023-11-19T01:39:58;12.70;99.90
8824;DHT22;4448;50.904;4.694;2023-11-19T01:42:23;12.70;99.90
8824;DHT22;4448;50.904;4.694;2023-11-19T01:44:58;12.70;99.90
8824;DHT22;4448;50.904;4.694;2023-11-19T01:47:25;12.70;99.90
8824;DHT22;4448;50.904;4.694;2023-11-19T01:49:52;12.70;99.90
8824;DHT22;4448;50.904;4.694;2023-11-19T01:52:18;12.70;99.90
8824;DHT22;4448;50.904;4.694;2023-11-19T01:54:44;12.70;99.90
8824;DHT22;4448;50.904;4.694;2023-11-19T01:57:10;12.70;99.90
8824;DHT22;4448;50.904;4.694;2023-11-19T01:59:37;12.70;99.90
8824;DHT22;4448;50.904;4.694;2023-11-19T02:02:05;12.70;99.90
8824;DHT22;4448;50.904;4.694;2023-11-19T02:04:31;12.80;99.90
8824;DHT22;4448;50.904;4.694;2023-11-19T02:06:58;12.70;99.90
8824;DHT22;4448;50.904;4.694;2023-11-19T02:09:24;12.70;99.90
8824;DHT22;4448;50.904;4.694;2023-11-19T02:11:50;12.70;99.90
8824;DHT22;4448;50.904;4.694;2023-11-19T02:14:17;12.70;99.90
8824;DHT22;4448;50.904;4.694;2023-11-19T02:16:44;12.70;99.90
8824;DHT22;4448;50.904;4.694;2023-11-19T02:19:09;12.80;99.90
8824;DHT22;4448;50.904;4.694;2023-11-19T02:21:37;12.70;99.90
8824;DHT22;4448;50.904;4.694;2023-11-19T02:24:06;12.70;99.90
8824;DHT22;4448;50.904;4.694;2023-11-19T02:29:44;12.70;99.90
8824;DHT22;4448;50.904;4.694;2023-11-19T02:32:10;12.60;99.90
8824;DHT22;4448;50.904;4.694;2023-11-19T02:34:35;12.60;99.90
8824;DHT22;4448;50.904;4.694;2023-11-19T02:37:01;12.60;99.90
8824;DHT22;4448;50.904;4.694;2023-11-19T02:39:27;12.60;99.90
8824;DHT22;4448;50.904;4.694;2023-11-19T02:41:52;12.60;99.90
8824;DHT22;4448;50.904;4.694;2023-11-19T02:44:18;12.60;99.90
8824;DHT22;4448;50.904;4.694;2023-11-19T02:46:44;12.50;99.90
8824;DHT22;4448;50.904;4.694;2023-11-19T02:49:10;12.60;99.90
8824;DHT22;4448;50.904;4.694;2023-11-19T02:51:35;12.50;99.90
8824;DHT22;4448;50.904;4.694;2023-11-19T02:54:02;12.50;99.90
8824;DHT22;4448;50.904;4.694;2023-11-19T02:56:29;12.50;99.90
8824;DHT22;4448;50.904;4.694;2023-11-19T02:59:00;12.50;99.90
8824;DHT22;4448;50.904;4.694;2023-11-19T03:01:33;12.50;99.90
8824;DHT22;4448;50.904;4.694;2023-11-19T03:04:01;12.50;99.90
8824;DHT22;4448;50.904;4.694;2023-11-19T03:06:27;12.50;99.90
8824;DHT22;4448;50.904;4.694;2023-11-19T03:08:55;12.50;99.90
8824;DHT22;4448;50.904;4.694;2023-11-19T03:11:21;12.50;99.90
8824;DHT22;4448;50.904;4.694;2023-11-19T03:13:46;12.50;99.90
8824;DHT22;4448;50.904;4.694;2023-11-19T03:16:13;12.50;99.90
8824;DHT22;4448;50.904;4.694;2023-11-19T03:18:39;12.50;99.90
8824;DHT22;4448;50.904;4.694;2023-11-19T03:21:08;12.50;99.90
8824;DHT22;4448;50.904;4.694;2023-11-19T03:23:34;12.40;99.90
8824;DHT22;4448;50.904;4.694;2023-11-19T03:26:00;12.50;99.90
8824;DHT22;4448;50.904;4.694;2023-11-19T03:28:29;12.50;99.90
8824;DHT22;4448;50.904;4.694;2023-11-19T03:30:55;12.40;99.90
8824;DHT22;4448;50.904;4.694;2023-11-19T03:33:20;12.50;99.90
8824;DHT22;4448;50.904;4.694;2023-11-19T03:35:46;12.40;99.90
8824;DHT22;4448;50.904;4.694;2023-11-19T03:38:12;12.40;99.90
8824;DHT22;4448;50.904;4.694;2023-11-19T03:40:38;12.40;99.90
8824;DHT22;4448;50.904;4.694;2023-11-19T03:43:04;12.40;99.90
8824;DHT22;4448;50.904;4.694;2023-11-19T03:45:30;12.40;99.90
8824;DHT22;4448;50.904;4.694;2023-11-19T03:47:56;12.40;99.90
8824;DHT22;4448;50.904;4.694;2023-11-19T03:50:22;12.30;99.90
8824;DHT22;4448;50.904;4.694;2023-11-19T03:52:48;12.40;99.90
8824;DHT22;4448;50.904;4.694;2023-11-19T03:55:14;12.40;99.90
8824;DHT22;4448;50.904;4.694;2023-11-19T03:57:39;12.30;99.90
8824;DHT22;4448;50.904;4.694;2023-11-19T04:00:05;12.30;99.90
8824;DHT22;4448;50.904;4.694;2023-11-19T04:02:36;12.30;99.90
8824;DHT22;4448;50.904;4.694;2023-11-19T04:05:02;12.30;99.90
8824;DHT22;4448;50.904;4.694;2023-11-19T04:07:29;12.30;99.90
8824;DHT22;4448;50.904;4.694;2023-11-19T04:09:55;12.30;99.90
8824;DHT22;4448;50.904;4.694;2023-11-19T04:12:21;12.30;99.90
8824;DHT22;4448;50.904;4.694;2023-11-19T04:14:47;12.30;99.90
8824;DHT22;4448;50.904;4.694;2023-11-19T04:17:13;12.30;99.90
8824;DHT22;4448;50.904;4.694;2023-11-19T04:19:38;12.30;99.90
8824;DHT22;4448;50.904;4.694;2023-11-19T04:22:07;12.30;99.90
8824;DHT22;4448;50.904;4.694;2023-11-19T04:24:34;12.30;99.90
8824;DHT22;4448;50.904;4.694;2023-11-19T04:27:00;12.20;99.90
8824;DHT22;4448;50.904;4.694;2023-11-19T04:29:25;12.20;99.90
8824;DHT22;4448;50.904;4.694;2023-11-19T04:31:51;12.20;99.90
8824;DHT22;4448;50.904;4.694;2023-11-19T04:34:17;12.20;99.90
8824;DHT22;4448;50.904;4.694;2023-11-19T04:36:42;12.20;99.90
8824;DHT22;4448;50.904;4.694;2023-11-19T04:39:09;12.20;99.90
8824;DHT22;4448;50.904;4.694;2023-11-19T04:41:46;12.20;99.90
8824;DHT22;4448;50.904;4.694;2023-11-19T04:44:12;12.20;99.90
8824;DHT22;4448;50.904;4.694;2023-11-19T04:46:37;12.20;99.90
8824;DHT22;4448;50.904;4.694;2023-11-19T04:49:03;12.20;99.90
8824;DHT22;4448;50.904;4.694;2023-11-19T04:51:30;12.20;99.90
8824;DHT22;4448;50.904;4.694;2023-11-19T04:53:55;12.20;99.90
8824;DHT22;4448;50.904;4.694;2023-11-19T04:56:21;12.20;99.90
8824;DHT22;4448;50.904;4.694;2023-11-19T04:58:48;12.20;99.90
8824;DHT22;4448;50.904;4.694;2023-11-19T05:01:14;12.20;99.90
8824;DHT22;4448;50.904;4.694;2023-11-19T05:03:43;12.20;99.90
8824;DHT22;4448;50.904;4.694;2023-11-19T05:06:09;12.20;99.90
8824;DHT22;4448;50.904;4.694;2023-11-19T05:08:35;12.20;99.90
8824;DHT22;4448;50.904;4.694;2023-11-19T05:11:01;12.20;99.90
8824;DHT22;4448;50.904;4.694;2023-11-19T05:13:27;12.10;99.90
8824;DHT22;4448;50.904;4.694;2023-11-19T05:15:53;12.10;99.90
8824;DHT22;4448;50.904;4.694;2023-11-19T05:18:18;12.10;99.90
8824;DHT22;4448;50.904;4.694;2023-11-19T05:20:45;12.10;99.90
8824;DHT22;4448;50.904;4.694;2023-11-19T05:23:11;12.10;99.90
8824;DHT22;4448;50.904;4.694;2023-11-19T05:25:37;12.10;99.90
8824;DHT22;4448;50.904;4.694;2023-11-19T05:28:02;12.10;99.90
8824;DHT22;4448;50.904;4.694;2023-11-19T05:30:28;12.10;99.90
8824;DHT22;4448;50.904;4.694;2023-11-19T05:32:54;12.10;99.90
8824;DHT22;4448;50.904;4.694;2023-11-19T05:35:19;12.10;99.90
8824;DHT22;4448;50.904;4.694;2023-11-19T05:37:45;12.10;99.90
8824;DHT22;4448;50.904;4.694;2023-11-19T05:40:11;12.00;99.90
8824;DHT22;4448;50.904;4.694;2023-11-19T05:42:43;12.00;99.90
8824;DHT22;4448;50.904;4.694;2023-11-19T05:45:11;12.00;99.90
8824;DHT22;4448;50.904;4.694;2023-11-19T05:47:37;12.00;99.90
8824;DHT22;4448;50.904;4.694;2023-11-19T05:50:03;12.00;99.90
8824;DHT22;4448;50.904;4.694;2023-11-19T05:52:31;12.00;99.90
8824;DHT22;4448;50.904;4.694;2023-11-19T05:55:02;12.00;99.90
8824;DHT22;4448;50.904;4.694;2023-11-19T05:57:30;12.00;99.90
8824;DHT22;4448;50.904;4.694;2023-11-19T05:59:56;12.00;99.90
8824;DHT22;4448;50.904;4.694;2023-11-19T06:02:21;12.00;99.90
8824;DHT22;4448;50.904;4.694;2023-11-19T06:04:47;12.00;99.90
8824;DHT22;4448;50.904;4.694;2023-11-19T06:07:13;12.00;99.90
8824;DHT22;4448;50.904;4.694;2023-11-19T06:09:40;12.00;99.90
8824;DHT22;4448;50.904;4.694;2023-11-19T06:12:07;12.00;99.90
8824;DHT22;4448;50.904;4.694;2023-11-19T06:14:33;12.00;99.90
8824;DHT22;4448;50.904;4.694;2023-11-19T06:16:58;12.00;99.90
8824;DHT22;4448;50.904;4.694;2023-11-19T06:19:24;12.00;99.90
8824;DHT22;4448;50.904;4.694;2023-11-19T06:21:52;12.00;99.90
8824;DHT22;4448;50.904;4.694;2023-11-19T06:24:18;11.90;99.90
8824;DHT22;4448;50.904;4.694;2023-11-19T06:26:44;11.90;99.90
8824;DHT22;4448;50.904;4.694;2023-11-19T06:29:09;11.90;99.90
8824;DHT22;4448;50.904;4.694;2023-11-19T06:31:35;11.90;99.90
8824;DHT22;4448;50.904;4.694;2023-11-19T06:34:00;11.90;99.90
8824;DHT22;4448;50.904;4.694;2023-11-19T06:36:26;11.90;99.90
8824;DHT22;4448;50.904;4.694;2023-11-19T06:38:52;11.90;99.90
8824;DHT22;4448;50.904;4.694;2023-11-19T06:41:18;11.90;99.90
8824;DHT22;4448;50.904;4.694;2023-11-19T06:43:44;11.90;99.90
8824;DHT22;4448;50.904;4.694;2023-11-19T06:46:17;11.90;99.90
8824;DHT22;4448;50.904;4.694;2023-11-19T06:48:43;11.90;99.90
8824;DHT22;4448;50.904;4.694;2023-11-19T06:51:10;11.90;99.90
8824;DHT22;4448;50.904;4.694;2023-11-19T06:53:35;11.90;99.90
8824;DHT22;4448;50.904;4.694;2023-11-19T06:56:02;11.90;99.90
8824;DHT22;4448;50.904;4.694;2023-11-19T06:58:32;11.90;99.90
8824;DHT22;4448;50.904;4.694;2023-11-19T07:01:01;11.90;99.90
8824;DHT22;4448;50.904;4.694;2023-11-19T07:03:26;11.90;99.90
8824;DHT22;4448;50.904;4.694;2023-11-19T07:05:52;11.90;99.90
8824;DHT22;4448;50.904;4.694;2023-11-19T07:08:17;11.90;99.90
8824;DHT22;4448;50.904;4.694;2023-11-19T07:10:43;11.90;99.90
8824;DHT22;4448;50.904;4.694;2023-11-19T07:13:09;11.90;99.90
8824;DHT22;4448;50.904;4.694;2023-11-19T07:15:35;11.90;99.90
8824;DHT22;4448;50.904;4.694;2023-11-19T07:18:00;11.90;99.90
8824;DHT22;4448;50.904;4.694;2023-11-19T07:20:26;11.90;99.90
8824;DHT22;4448;50.904;4.694;2023-11-19T07:22:53;11.90;99.90
8824;DHT22;4448;50.904;4.694;2023-11-19T07:25:22;11.90;99.90
8824;DHT22;4448;50.904;4.694;2023-11-19T07:27:48;11.90;99.90
8824;DHT22;4448;50.904;4.694;2023-11-19T07:30:14;11.90;99.90
8824;DHT22;4448;50.904;4.694;2023-11-19T07:32:40;11.90;99.90
8824;DHT22;4448;50.904;4.694;2023-11-19T07:35:06;11.90;99.90
8824;DHT22;4448;50.904;4.694;2023-11-19T07:37:32;11.90;99.90
8824;DHT22;4448;50.904;4.694;2023-11-19T07:39:58;11.90;99.90
8824;DHT22;4448;50.904;4.694;2023-11-19T07:42:23;11.90;99.90
8824;DHT22;4448;50.904;4.694;2023-11-19T07:44:49;11.90;99.90
8824;DHT22;4448;50.904;4.694;2023-11-19T07:47:15;11.90;99.90
8824;DHT22;4448;50.904;4.694;2023-11-19T07:49:40;11.90;99.90
8824;DHT22;4448;50.904;4.694;2023-11-19T07:52:06;11.90;99.90
8824;DHT22;4448;50.904;4.694;2023-11-19T07:54:32;11.90;99.90
8824;DHT22;4448;50.904;4.694;2023-11-19T07:56:58;11.90;99.90
8824;DHT22;4448;50.904;4.694;2023-11-19T07:59:23;12.00;99.90
8824;DHT22;4448;50.904;4.694;2023-11-19T08:01:49;12.00;99.90
8824;DHT22;4448;50.904;4.694;2023-11-19T08:04:15;12.00;99.90
8824;DHT22;4448;50.904;4.694;2023-11-19T08:06:40;12.00;99.90
8824;DHT22;4448;50.904;4.694;2023-11-19T08:09:06;12.10;99.90
8824;DHT22;4448;50.904;4.694;2023-11-19T08:11:33;12.10;99.90
8824;DHT22;4448;50.904;4.694;2023-11-19T08:13:59;12.10;99.90
8824;DHT22;4448;50.904;4.694;2023-11-19T08:16:24;12.10;99.90
8824;DHT22;4448;50.904;4.694;2023-11-19T08:18:50;12.10;99.90
8824;DHT22;4448;50.904;4.694;2023-11-19T08:21:16;12.10;99.90
8824;DHT22;4448;50.904;4.694;2023-11-19T08:23:42;12.20;99.90
8824;DHT22;4448;50.904;4.694;2023-11-19T08:26:07;12.20;99.90
8824;DHT22;4448;50.904;4.694;2023-11-19T08:28:34;12.20;99.90
8824;DHT22;4448;50.904;4.694;2023-11-19T08:31:00;12.20;99.90
8824;DHT22;4448;50.904;4.694;2023-11-19T08:33:26;12.20;99.90
8824;DHT22;4448;50.904;4.694;2023-11-19T08:35:52;12.30;99.90
8824;DHT22;4448;50.904;4.694;2023-11-19T08:38:18;12.30;99.90
8824;DHT22;4448;50.904;4.694;2023-11-19T08:40:44;12.40;99.90
8824;DHT22;4448;50.904;4.694;2023-11-19T08:43:09;12.40;99.90
8824;DHT22;4448;50.904;4.694;2023-11-19T08:45:35;12.40;99.90
8824;DHT22;4448;50.904;4.694;2023-11-19T08:48:01;12.50;99.90
8824;DHT22;4448;50.904;4.694;2023-11-19T08:50:27;12.50;99.90
8824;DHT22;4448;50.904;4.694;2023-11-19T08:52:53;12.60;99.90
8824;DHT22;4448;50.904;4.694;2023-11-19T08:55:18;12.60;99.90
8824;DHT22;4448;50.904;4.694;2023-11-19T08:57:44;12.60;99.90
8824;DHT22;4448;50.904;4.694;2023-11-19T09:00:10;12.70;99.90
8824;DHT22;4448;50.904;4.694;2023-11-19T09:02:39;12.70;99.90
8824;DHT22;4448;50.904;4.694;2023-11-19T09:05:05;12.60;99.90
8824;DHT22;4448;50.904;4.694;2023-11-19T09:07:33;12.60;99.90
8824;DHT22;4448;50.904;4.694;2023-11-19T09:09:58;12.60;99.90
8824;DHT22;4448;50.904;4.694;2023-11-19T09:12:24;12.60;99.90
8824;DHT22;4448;50.904;4.694;2023-11-19T09:14:50;12.50;99.90
8824;DHT22;4448;50.904;4.694;2023-11-19T09:17:16;12.60;99.90
8824;DHT22;4448;50.904;4.694;2023-11-19T09:19:42;12.60;99.90
8824;DHT22;4448;50.904;4.694;2023-11-19T09:22:08;12.60;99.90
8824;DHT22;4448;50.904;4.694;2023-11-19T09:24:34;12.60;99.90
8824;DHT22;4448;50.904;4.694;2023-11-19T09:26:59;12.60;99.90
8824;DHT22;4448;50.904;4.694;2023-11-19T09:29:25;12.60;99.90
8824;DHT22;4448;50.904;4.694;2023-11-19T09:31:51;12.50;99.90
8824;DHT22;4448;50.904;4.694;2023-11-19T09:34:17;12.50;99.90
8824;DHT22;4448;50.904;4.694;2023-11-19T09:36:42;12.60;99.90
8824;DHT22;4448;50.904;4.694;2023-11-19T09:39:12;12.60;99.90
8824;DHT22;4448;50.904;4.694;2023-11-19T09:41:43;12.70;99.90
8824;DHT22;4448;50.904;4.694;2023-11-19T09:44:10;12.70;99.90
8824;DHT22;4448;50.904;4.694;2023-11-19T09:46:38;12.90;99.90
8824;DHT22;4448;50.904;4.694;2023-11-19T09:49:05;12.90;99.90
8824;DHT22;4448;50.904;4.694;2023-11-19T09:51:35;13.00;99.90
8824;DHT22;4448;50.904;4.694;2023-11-19T09:54:01;13.00;99.90
8824;DHT22;4448;50.904;4.694;2023-11-19T09:56:29;13.00;99.90
8824;DHT22;4448;50.904;4.694;2023-11-19T09:58:55;13.10;99.90
8824;DHT22;4448;50.904;4.694;2023-11-19T10:01:21;13.20;99.90
8824;DHT22;4448;50.904;4.694;2023-11-19T10:03:50;13.30;99.90
8824;DHT22;4448;50.904;4.694;2023-11-19T10:06:17;13.40;99.90
8824;DHT22;4448;50.904;4.694;2023-11-19T10:08:44;13.40;99.90
8824;DHT22;4448;50.904;4.694;2023-11-19T10:11:10;13.50;99.90
8824;DHT22;4448;50.904;4.694;2023-11-19T10:13:37;13.60;99.90
8824;DHT22;4448;50.904;4.694;2023-11-19T10:16:17;13.60;99.90
8824;DHT22;4448;50.904;4.694;2023-11-19T10:18:47;13.60;99.90
8824;DHT22;4448;50.904;4.694;2023-11-19T10:21:13;13.60;99.90
8824;DHT22;4448;50.904;4.694;2023-11-19T10:23:53;13.60;99.90
8824;DHT22;4448;50.904;4.694;2023-11-19T10:26:20;13.60;99.90
8824;DHT22;4448;50.904;4.694;2023-11-19T10:28:47;13.60;99.90
8824;DHT22;4448;50.904;4.694;2023-11-19T10:31:17;13.60;99.90
8824;DHT22;4448;50.904;4.694;2023-11-19T10:33:43;13.70;99.90
8824;DHT22;4448;50.904;4.694;2023-11-19T10:36:11;13.70;99.90
8824;DHT22;4448;50.904;4.694;2023-11-19T10:38:38;13.70;99.90
8824;DHT22;4448;50.904;4.694;2023-11-19T10:41:04;13.60;99.90
8824;DHT22;4448;50.904;4.694;2023-11-19T10:43:31;13.70;99.90
8824;DHT22;4448;50.904;4.694;2023-11-19T10:46:09;13.70;99.90
8824;DHT22;4448;50.904;4.694;2023-11-19T10:48:36;13.70;99.90
8824;DHT22;4448;50.904;4.694;2023-11-19T10:51:05;13.70;99.90
8824;DHT22;4448;50.904;4.694;2023-11-19T10:53:35;13.70;99.90
8824;DHT22;4448;50.904;4.694;2023-11-19T10:56:02;13.70;99.90
8824;DHT22;4448;50.904;4.694;2023-11-19T10:58:32;13.70;99.90
8824;DHT22;4448;50.904;4.694;2023-11-19T11:01:02;13.70;99.90
8824;DHT22;4448;50.904;4.694;2023-11-19T11:03:37;13.70;99.90
8824;DHT22;4448;50.904;4.694;2023-11-19T11:06:05;13.70;99.90
8824;DHT22;4448;50.904;4.694;2023-11-19T11:08:31;13.60;99.90
8824;DHT22;4448;50.904;4.694;2023-11-19T11:10:57;13.60;99.90
8824;DHT22;4448;50.904;4.694;2023-11-19T11:13:24;13.60;99.90
8824;DHT22;4448;50.904;4.694;2023-11-19T11:15:51;13.50;99.90
8824;DHT22;4448;50.904;4.694;2023-11-19T11:18:17;13.50;99.90
8824;DHT22;4448;50.904;4.694;2023-11-19T11:20:46;13.50;99.90
8824;DHT22;4448;50.904;4.694;2023-11-19T11:31:31;13.50;99.90
8824;DHT22;4448;50.904;4.694;2023-11-19T11:39:40;13.60;99.90
8824;DHT22;4448;50.904;4.694;2023-11-19T11:45:06;13.60;99.90
8824;DHT22;4448;50.904;4.694;2023-11-19T11:50:18;13.60;99.90
8824;DHT22;4448;50.904;4.694;2023-11-19T11:55:25;13.60;99.90
8824;DHT22;4448;50.904;4.694;2023-11-19T11:57:51;13.50;99.90
8824;DHT22;4448;50.904;4.694;2023-11-19T12:00:27;13.50;99.90
8824;DHT22;4448;50.904;4.694;2023-11-19T12:02:59;13.50;99.90
8824;DHT22;4448;50.904;4.694;2023-11-19T12:05:25;13.50;99.90
8824;DHT22;4448;50.904;4.694;2023-11-19T12:08:04;13.50;99.90
8824;DHT22;4448;50.904;4.694;2023-11-19T12:10:36;13.50;99.90
8824;DHT22;4448;50.904;4.694;2023-11-19T12:13:06;13.50;99.90
8824;DHT22;4448;50.904;4.694;2023-11-19T12:18:29;13.50;99.90
8824;DHT22;4448;50.904;4.694;2023-11-19T12:20:56;13.50;99.90
8824;DHT22;4448;50.904;4.694;2023-11-19T12:23:28;13.60;99.90
8824;DHT22;4448;50.904;4.694;2023-11-19T12:25:54;13.60;99.90
8824;DHT22;4448;50.904;4.694;2023-11-19T12:28:20;13.70;99.90
8824;DHT22;4448;50.904;4.694;2023-11-19T12:30:47;13.80;99.90
8824;DHT22;4448;50.904;4.694;2023-11-19T12:33:13;13.80;99.90
8824;DHT22;4448;50.904;4.694;2023-11-19T12:35:43;13.80;99.90
8824;DHT22;4448;50.904;4.694;2023-11-19T12:38:19;13.80;99.90
8824;DHT22;4448;50.904;4.694;2023-11-19T12:40:46;13.80;99.90
8824;DHT22;4448;50.904;4.694;2023-11-19T12:43:21;13.80;99.90
8824;DHT22;4448;50.904;4.694;2023-11-19T12:45:48;13.80;99.90
8824;DHT22;4448;50.904;4.694;2023-11-19T12:48:13;13.80;99.90
8824;DHT22;4448;50.904;4.694;2023-11-19T12:51:05;13.80;99.90
8824;DHT22;4448;50.904;4.694;2023-11-19T12:53:48;13.80;99.90
8824;DHT22;4448;50.904;4.694;2023-11-19T12:56:15;13.80;99.90
8824;DHT22;4448;50.904;4.694;2023-11-19T12:58:41;13.80;99.90
8824;DHT22;4448;50.904;4.694;2023-11-19T13:01:08;13.80;99.90
8824;DHT22;4448;50.904;4.694;2023-11-19T13:03:37;13.70;99.90
8824;DHT22;4448;50.904;4.694;2023-11-19T13:06:11;13.70;99.90
8824;DHT22;4448;50.904;4.694;2023-11-19T13:08:45;13.70;99.90
8824;DHT22;4448;50.904;4.694;2023-11-19T13:11:12;13.70;99.90
8824;DHT22;4448;50.904;4.694;2023-11-19T13:13:58;13.60;99.90
8824;DHT22;4448;50.904;4.694;2023-11-19T13:16:25;13.60;99.90
8824;DHT22;4448;50.904;4.694;2023-11-19T13:18:51;13.60;99.90
8824;DHT22;4448;50.904;4.694;2023-11-19T13:21:17;13.60;99.90
8824;DHT22;4448;50.904;4.694;2023-11-19T13:23:43;13.60;99.90
8824;DHT22;4448;50.904;4.694;2023-11-19T13:26:09;13.60;99.90
8824;DHT22;4448;50.904;4.694;2023-11-19T13:28:36;13.50;99.90
8824;DHT22;4448;50.904;4.694;2023-11-19T13:31:02;13.60;99.90
8824;DHT22;4448;50.904;4.694;2023-11-19T13:33:28;13.60;99.90
8824;DHT22;4448;50.904;4.694;2023-11-19T13:35:55;13.50;99.90
8824;DHT22;4448;50.904;4.694;2023-11-19T13:38:21;13.60;99.90
8824;DHT22;4448;50.904;4.694;2023-11-19T13:40:46;13.60;99.90
8824;DHT22;4448;50.904;4.694;2023-11-19T13:43:13;13.60;99.90
8824;DHT22;4448;50.904;4.694;2023-11-19T13:45:38;13.60;99.90
8824;DHT22;4448;50.904;4.694;2023-11-19T13:48:04;13.60;99.90
8824;DHT22;4448;50.904;4.694;2023-11-19T13:50:30;13.60;99.90
8824;DHT22;4448;50.904;4.694;2023-11-19T13:52:56;13.60;99.90
8824;DHT22;4448;50.904;4.694;2023-11-19T13:55:21;13.60;99.90
8824;DHT22;4448;50.904;4.694;2023-11-19T13:57:48;13.50;99.90
8824;DHT22;4448;50.904;4.694;2023-11-19T14:00:14;13.60;99.90
8824;DHT22;4448;50.904;4.694;2023-11-19T14:02:48;13.50;99.90
8824;DHT22;4448;50.904;4.694;2023-11-19T14:05:14;13.50;99.90
8824;DHT22;4448;50.904;4.694;2023-11-19T14:07:43;13.50;99.90
8824;DHT22;4448;50.904;4.694;2023-11-19T14:10:10;13.50;99.90
8824;DHT22;4448;50.904;4.694;2023-11-19T14:12:37;13.50;99.90
8824;DHT22;4448;50.904;4.694;2023-11-19T14:15:04;13.40;99.90
8824;DHT22;4448;50.904;4.694;2023-11-19T14:17:32;13.40;99.90
8824;DHT22;4448;50.904;4.694;2023-11-19T14:19:57;13.40;99.90
8824;DHT22;4448;50.904;4.694;2023-11-19T14:22:23;13.40;99.90
8824;DHT22;4448;50.904;4.694;2023-11-19T14:24:50;13.40;99.90
8824;DHT22;4448;50.904;4.694;2023-11-19T14:27:16;13.40;99.90
8824;DHT22;4448;50.904;4.694;2023-11-19T14:29:44;13.30;99.90
8824;DHT22;4448;50.904;4.694;2023-11-19T14:32:11;13.40;99.90
8824;DHT22;4448;50.904;4.694;2023-11-19T14:34:37;13.40;99.90
8824;DHT22;4448;50.904;4.694;2023-11-19T14:37:03;13.30;99.90
8824;DHT22;4448;50.904;4.694;2023-11-19T14:39:28;13.40;99.90
8824;DHT22;4448;50.904;4.694;2023-11-19T14:41:57;13.30;99.90
8824;DHT22;4448;50.904;4.694;2023-11-19T14:44:30;13.30;99.90
8824;DHT22;4448;50.904;4.694;2023-11-19T14:46:56;13.30;99.90
8824;DHT22;4448;50.904;4.694;2023-11-19T14:49:22;13.30;99.90
8824;DHT22;4448;50.904;4.694;2023-11-19T14:51:49;13.30;99.90
8824;DHT22;4448;50.904;4.694;2023-11-19T14:54:15;13.30;99.90
8824;DHT22;4448;50.904;4.694;2023-11-19T14:56:42;13.20;99.90
8824;DHT22;4448;50.904;4.694;2023-11-19T14:59:07;13.20;99.90
8824;DHT22;4448;50.904;4.694;2023-11-19T15:01:33;13.20;99.90
8824;DHT22;4448;50.904;4.694;2023-11-19T15:03:59;13.20;99.90
8824;DHT22;4448;50.904;4.694;2023-11-19T15:06:25;13.20;99.90
8824;DHT22;4448;50.904;4.694;2023-11-19T15:08:55;13.20;99.90
8824;DHT22;4448;50.904;4.694;2023-11-19T15:11:22;13.10;99.90
8824;DHT22;4448;50.904;4.694;2023-11-19T15:13:48;13.10;99.90
8824;DHT22;4448;50.904;4.694;2023-11-19T15:16:15;13.10;99.90
8824;DHT22;4448;50.904;4.694;2023-11-19T15:18:42;13.10;99.90
8824;DHT22;4448;50.904;4.694;2023-11-19T15:21:08;13.10;99.90
8824;DHT22;4448;50.904;4.694;2023-11-19T15:23:34;13.10;99.90
8824;DHT22;4448;50.904;4.694;2023-11-19T15:26:00;13.10;99.90
8824;DHT22;4448;50.904;4.694;2023-11-19T15:28:25;13.10;99.90
8824;DHT22;4448;50.904;4.694;2023-11-19T15:30:51;13.10;99.90
8824;DHT22;4448;50.904;4.694;2023-11-19T15:33:17;13.00;99.90
8824;DHT22;4448;50.904;4.694;2023-11-19T15:35:42;13.00;99.90
8824;DHT22;4448;50.904;4.694;2023-11-19T15:38:08;13.00;99.90
8824;DHT22;4448;50.904;4.694;2023-11-19T15:40:35;13.00;99.90
8824;DHT22;4448;50.904;4.694;2023-11-19T15:43:03;13.00;99.90
8824;DHT22;4448;50.904;4.694;2023-11-19T15:45:29;13.00;99.90
8824;DHT22;4448;50.904;4.694;2023-11-19T15:47:55;13.00;99.90
8824;DHT22;4448;50.904;4.694;2023-11-19T15:50:20;13.00;99.90
8824;DHT22;4448;50.904;4.694;2023-11-19T15:52:46;12.90;99.90
8824;DHT22;4448;50.904;4.694;2023-11-19T15:55:13;13.00;99.90
8824;DHT22;4448;50.904;4.694;2023-11-19T15:57:39;13.00;99.90
8824;DHT22;4448;50.904;4.694;2023-11-19T16:00:05;12.90;99.90
8824;DHT22;4448;50.904;4.694;2023-11-19T16:02:31;13.00;99.90
8824;DHT22;4448;50.904;4.694;2023-11-19T16:04:56;13.00;99.90
8824;DHT22;4448;50.904;4.694;2023-11-19T16:07:22;13.00;99.90
8824;DHT22;4448;50.904;4.694;2023-11-19T16:09:48;13.00;99.90
8824;DHT22;4448;50.904;4.694;2023-11-19T16:12:14;13.00;99.90
8824;DHT22;4448;50.904;4.694;2023-11-19T16:14:40;13.00;99.90
8824;DHT22;4448;50.904;4.694;2023-11-19T16:17:06;13.00;99.90
8824;DHT22;4448;50.904;4.694;2023-11-19T16:19:32;13.00;99.90
8824;DHT22;4448;50.904;4.694;2023-11-19T16:22:00;13.00;99.90
8824;DHT22;4448;50.904;4.694;2023-11-19T16:24:35;13.00;99.90
8824;DHT22;4448;50.904;4.694;2023-11-19T16:27:01;13.00;99.90
8824;DHT22;4448;50.904;4.694;2023-11-19T16:29:27;13.00;99.90